sensor_id;sensor_type;location;lat;lon;timestamp;P1;durP1;ratioP1;P2;durP2;ratioP2
85081;SDS011;75424;50.762;7.178;2024-03-17T00:00:32;11.85;;;7.28;;
85081;SDS011;75424;50.762;7.178;2024-03-17T00:02:57;10.48;;;6.10;;
85081;SDS011;75424;50.762;7.178;2024-03-17T00:05:22;13.40;;;7.07;;
85081;SDS011;75424;50.762;7.178;2024-03-17T00:07:48;9.15;;;6.93;;
85081;SDS011;75424;50.762;7.178;2024-03-17T00:10:13;8.55;;;6.50;;
85081;SDS011;75424;50.762;7.178;2024-03-17T00:12:40;9.18;;;6.78;;
85081;SDS011;75424;50.762;7.178;2024-03-17T00:15:05;9.73;;;6.88;;
85081;SDS011;75424;50.762;7.178;2024-03-17T00:17:31;12.32;;;6.60;;
85081;SDS011;75424;50.762;7.178;2024-03-17T00:19:58;8.65;;;5.80;;
85081;SDS011;75424;50.762;7.178;2024-03-17T00:22:26;10.20;;;6.43;;
85081;SDS011;75424;50.762;7.178;2024-03-17T00:24:52;7.15;;;5.63;;
85081;SDS011;75424;50.762;7.178;2024-03-17T00:27:17;9.77;;;6.85;;
85081;SDS011;75424;50.762;7.178;2024-03-17T00:29:42;10.17;;;5.57;;
85081;SDS011;75424;50.762;7.178;2024-03-17T00:32:08;7.80;;;6.20;;
85081;SDS011;75424;50.762;7.178;2024-03-17T00:34:35;11.93;;;6.45;;
85081;SDS011;75424;50.762;7.178;2024-03-17T00:37:00;8.73;;;6.53;;
85081;SDS011;75424;50.762;7.178;2024-03-17T00:39:26;9.17;;;6.00;;
85081;SDS011;75424;50.762;7.178;2024-03-17T00:41:52;12.50;;;6.50;;
85081;SDS011;75424;50.762;7.178;2024-03-17T00:44:17;8.60;;;5.68;;
85081;SDS011;75424;50.762;7.178;2024-03-17T00:46:43;14.30;;;7.43;;
85081;SDS011;75424;50.762;7.178;2024-03-17T00:49:12;8.05;;;5.85;;
85081;SDS011;75424;50.762;7.178;2024-03-17T00:51:37;11.85;;;6.45;;
85081;SDS011;75424;50.762;7.178;2024-03-17T00:54:03;10.95;;;6.25;;
85081;SDS011;75424;50.762;7.178;2024-03-17T00:56:29;9.45;;;5.38;;
85081;SDS011;75424;50.762;7.178;2024-03-17T00:58:54;8.52;;;5.40;;
85081;SDS011;75424;50.762;7.178;2024-03-17T01:01:19;8.95;;;6.38;;
85081;SDS011;75424;50.762;7.178;2024-03-17T01:03:45;8.07;;;5.50;;
85081;SDS011;75424;50.762;7.178;2024-03-17T01:06:11;7.43;;;5.28;;
85081;SDS011;75424;50.762;7.178;2024-03-17T01:08:37;6.70;;;6.00;;
85081;SDS011;75424;50.762;7.178;2024-03-17T01:11:02;9.90;;;5.88;;
85081;SDS011;75424;50.762;7.178;2024-03-17T01:13:28;7.68;;;6.22;;
85081;SDS011;75424;50.762;7.178;2024-03-17T01:15:53;8.95;;;6.05;;
85081;SDS011;75424;50.762;7.178;2024-03-17T01:18:19;7.43;;;5.32;;
85081;SDS011;75424;50.762;7.178;2024-03-17T01:20:44;9.48;;;5.38;;
85081;SDS011;75424;50.762;7.178;2024-03-17T01:23:10;8.05;;;5.32;;
85081;SDS011;75424;50.762;7.178;2024-03-17T01:25:36;7.57;;;5.55;;
85081;SDS011;75424;50.762;7.178;2024-03-17T01:28:02;9.48;;;5.88;;
85081;SDS011;75424;50.762;7.178;2024-03-17T01:30:28;7.95;;;5.35;;
85081;SDS011;75424;50.762;7.178;2024-03-17T01:32:54;11.00;;;6.07;;
85081;SDS011;75424;50.762;7.178;2024-03-17T01:35:20;7.68;;;5.20;;
85081;SDS011;75424;50.762;7.178;2024-03-17T01:37:45;8.98;;;5.05;;
85081;SDS011;75424;50.762;7.178;2024-03-17T01:40:10;9.30;;;4.88;;
85081;SDS011;75424;50.762;7.178;2024-03-17T01:42:37;10.23;;;5.55;;
85081;SDS011;75424;50.762;7.178;2024-03-17T01:45:20;8.48;;;5.03;;
85081;SDS011;75424;50.762;7.178;2024-03-17T01:47:52;8.32;;;5.20;;
85081;SDS011;75424;50.762;7.178;2024-03-17T01:50:17;7.78;;;5.35;;
85081;SDS011;75424;50.762;7.178;2024-03-17T01:52:49;7.35;;;5.43;;
85081;SDS011;75424;50.762;7.178;2024-03-17T01:55:15;7.05;;;4.30;;
85081;SDS011;75424;50.762;7.178;2024-03-17T01:57:41;9.93;;;5.28;;
85081;SDS011;75424;50.762;7.178;2024-03-17T02:00:06;6.97;;;4.93;;
85081;SDS011;75424;50.762;7.178;2024-03-17T02:02:33;6.97;;;4.25;;
85081;SDS011;75424;50.762;7.178;2024-03-17T02:04:59;7.97;;;5.63;;
85081;SDS011;75424;50.762;7.178;2024-03-17T02:07:24;8.55;;;4.65;;
85081;SDS011;75424;50.762;7.178;2024-03-17T02:09:50;7.10;;;4.10;;
85081;SDS011;75424;50.762;7.178;2024-03-17T02:12:15;9.33;;;4.57;;
85081;SDS011;75424;50.762;7.178;2024-03-17T02:14:40;6.22;;;4.75;;
85081;SDS011;75424;50.762;7.178;2024-03-17T02:17:06;7.88;;;4.90;;
85081;SDS011;75424;50.762;7.178;2024-03-17T02:19:31;6.30;;;4.82;;
85081;SDS011;75424;50.762;7.178;2024-03-17T02:21:56;6.43;;;4.53;;
85081;SDS011;75424;50.762;7.178;2024-03-17T02:24:22;7.47;;;4.55;;
85081;SDS011;75424;50.762;7.178;2024-03-17T02:26:47;7.53;;;4.80;;
85081;SDS011;75424;50.762;7.178;2024-03-17T02:29:12;6.63;;;4.72;;
85081;SDS011;75424;50.762;7.178;2024-03-17T02:31:38;6.35;;;4.30;;
85081;SDS011;75424;50.762;7.178;2024-03-17T02:34:03;6.68;;;4.40;;
85081;SDS011;75424;50.762;7.178;2024-03-17T02:36:29;6.03;;;4.45;;
85081;SDS011;75424;50.762;7.178;2024-03-17T02:38:54;6.65;;;4.18;;
85081;SDS011;75424;50.762;7.178;2024-03-17T02:41:41;7.95;;;4.35;;
85081;SDS011;75424;50.762;7.178;2024-03-17T02:44:07;7.03;;;4.20;;
85081;SDS011;75424;50.762;7.178;2024-03-17T02:46:32;5.77;;;4.20;;
85081;SDS011;75424;50.762;7.178;2024-03-17T02:48:59;5.22;;;3.83;;
85081;SDS011;75424;50.762;7.178;2024-03-17T02:51:24;5.75;;;3.97;;
85081;SDS011;75424;50.762;7.178;2024-03-17T02:53:50;5.65;;;4.03;;
85081;SDS011;75424;50.762;7.178;2024-03-17T02:56:16;6.25;;;3.78;;
85081;SDS011;75424;50.762;7.178;2024-03-17T02:58:43;5.47;;;4.00;;
85081;SDS011;75424;50.762;7.178;2024-03-17T03:01:11;5.57;;;3.70;;
85081;SDS011;75424;50.762;7.178;2024-03-17T03:03:36;4.80;;;3.47;;
85081;SDS011;75424;50.762;7.178;2024-03-17T03:06:02;7.35;;;4.38;;
85081;SDS011;75424;50.762;7.178;2024-03-17T03:08:32;7.72;;;3.72;;
85081;SDS011;75424;50.762;7.178;2024-03-17T03:10:58;5.82;;;4.13;;
85081;SDS011;75424;50.762;7.178;2024-03-17T03:13:24;8.05;;;4.20;;
85081;SDS011;75424;50.762;7.178;2024-03-17T03:15:49;6.45;;;4.28;;
85081;SDS011;75424;50.762;7.178;2024-03-17T03:18:15;6.88;;;4.05;;
85081;SDS011;75424;50.762;7.178;2024-03-17T03:20:40;4.53;;;3.38;;
85081;SDS011;75424;50.762;7.178;2024-03-17T03:23:06;6.90;;;3.85;;
85081;SDS011;75424;50.762;7.178;2024-03-17T03:25:31;8.35;;;4.00;;
85081;SDS011;75424;50.762;7.178;2024-03-17T03:27:57;5.68;;;3.15;;
85081;SDS011;75424;50.762;7.178;2024-03-17T03:30:23;6.00;;;4.47;;
85081;SDS011;75424;50.762;7.178;2024-03-17T03:32:48;5.10;;;3.53;;
85081;SDS011;75424;50.762;7.178;2024-03-17T03:35:14;4.35;;;3.92;;
85081;SDS011;75424;50.762;7.178;2024-03-17T03:37:40;5.63;;;4.40;;
85081;SDS011;75424;50.762;7.178;2024-03-17T03:40:06;5.53;;;4.40;;
85081;SDS011;75424;50.762;7.178;2024-03-17T03:42:41;5.82;;;4.63;;
85081;SDS011;75424;50.762;7.178;2024-03-17T03:45:08;7.68;;;4.10;;
85081;SDS011;75424;50.762;7.178;2024-03-17T03:47:34;9.48;;;4.72;;
85081;SDS011;75424;50.762;7.178;2024-03-17T03:49:59;6.73;;;4.33;;
85081;SDS011;75424;50.762;7.178;2024-03-17T03:52:25;7.90;;;4.20;;
85081;SDS011;75424;50.762;7.178;2024-03-17T03:54:53;5.53;;;4.28;;
85081;SDS011;75424;50.762;7.178;2024-03-17T03:57:18;7.35;;;4.28;;
85081;SDS011;75424;50.762;7.178;2024-03-17T03:59:43;7.23;;;4.40;;
85081;SDS011;75424;50.762;7.178;2024-03-17T04:02:09;6.22;;;4.07;;
85081;SDS011;75424;50.762;7.178;2024-03-17T04:04:34;6.03;;;4.07;;
85081;SDS011;75424;50.762;7.178;2024-03-17T04:07:00;7.28;;;5.13;;
85081;SDS011;75424;50.762;7.178;2024-03-17T04:09:25;6.07;;;3.40;;
85081;SDS011;75424;50.762;7.178;2024-03-17T04:11:50;5.77;;;4.10;;
85081;SDS011;75424;50.762;7.178;2024-03-17T04:14:16;6.72;;;3.95;;
85081;SDS011;75424;50.762;7.178;2024-03-17T04:16:42;7.15;;;4.65;;
85081;SDS011;75424;50.762;7.178;2024-03-17T04:19:07;6.33;;;4.53;;
85081;SDS011;75424;50.762;7.178;2024-03-17T04:21:33;8.27;;;4.78;;
85081;SDS011;75424;50.762;7.178;2024-03-17T04:23:59;7.05;;;4.65;;
85081;SDS011;75424;50.762;7.178;2024-03-17T04:26:24;5.35;;;4.28;;
85081;SDS011;75424;50.762;7.178;2024-03-17T04:28:49;8.32;;;4.15;;
85081;SDS011;75424;50.762;7.178;2024-03-17T04:31:15;7.25;;;4.10;;
85081;SDS011;75424;50.762;7.178;2024-03-17T04:33:40;8.73;;;4.47;;
85081;SDS011;75424;50.762;7.178;2024-03-17T04:36:06;8.32;;;4.85;;
85081;SDS011;75424;50.762;7.178;2024-03-17T04:38:33;8.77;;;5.03;;
85081;SDS011;75424;50.762;7.178;2024-03-17T04:40:59;8.13;;;4.00;;
85081;SDS011;75424;50.762;7.178;2024-03-17T04:43:30;8.55;;;4.85;;
85081;SDS011;75424;50.762;7.178;2024-03-17T04:46:00;8.95;;;4.68;;
85081;SDS011;75424;50.762;7.178;2024-03-17T04:48:28;6.70;;;4.70;;
85081;SDS011;75424;50.762;7.178;2024-03-17T04:50:53;7.63;;;5.22;;
85081;SDS011;75424;50.762;7.178;2024-03-17T04:53:19;5.97;;;4.10;;
85081;SDS011;75424;50.762;7.178;2024-03-17T04:55:45;6.82;;;4.88;;
85081;SDS011;75424;50.762;7.178;2024-03-17T04:58:10;7.15;;;4.78;;
85081;SDS011;75424;50.762;7.178;2024-03-17T05:00:36;11.43;;;5.00;;
85081;SDS011;75424;50.762;7.178;2024-03-17T05:03:01;5.97;;;5.13;;
85081;SDS011;75424;50.762;7.178;2024-03-17T05:05:26;10.87;;;4.93;;
85081;SDS011;75424;50.762;7.178;2024-03-17T05:07:52;7.80;;;4.75;;
85081;SDS011;75424;50.762;7.178;2024-03-17T05:10:17;7.72;;;4.63;;
85081;SDS011;75424;50.762;7.178;2024-03-17T05:12:42;7.35;;;4.43;;
85081;SDS011;75424;50.762;7.178;2024-03-17T05:15:08;9.45;;;5.78;;
85081;SDS011;75424;50.762;7.178;2024-03-17T05:17:33;8.25;;;5.68;;
85081;SDS011;75424;50.762;7.178;2024-03-17T05:19:59;8.50;;;5.25;;
85081;SDS011;75424;50.762;7.178;2024-03-17T05:22:24;8.25;;;4.72;;
85081;SDS011;75424;50.762;7.178;2024-03-17T05:24:49;9.93;;;6.00;;
85081;SDS011;75424;50.762;7.178;2024-03-17T05:27:15;9.82;;;5.70;;
85081;SDS011;75424;50.762;7.178;2024-03-17T05:29:40;10.20;;;6.53;;
85081;SDS011;75424;50.762;7.178;2024-03-17T05:32:06;9.57;;;6.40;;
85081;SDS011;75424;50.762;7.178;2024-03-17T05:34:31;10.07;;;5.55;;
85081;SDS011;75424;50.762;7.178;2024-03-17T05:36:57;8.38;;;6.13;;
85081;SDS011;75424;50.762;7.178;2024-03-17T05:39:22;9.47;;;5.73;;
85081;SDS011;75424;50.762;7.178;2024-03-17T05:41:48;9.80;;;5.97;;
85081;SDS011;75424;50.762;7.178;2024-03-17T05:44:14;9.52;;;6.50;;
85081;SDS011;75424;50.762;7.178;2024-03-17T05:46:42;11.00;;;6.70;;
85081;SDS011;75424;50.762;7.178;2024-03-17T05:49:08;10.93;;;6.45;;
85081;SDS011;75424;50.762;7.178;2024-03-17T05:51:34;8.27;;;5.50;;
85081;SDS011;75424;50.762;7.178;2024-03-17T05:53:59;8.13;;;5.78;;
85081;SDS011;75424;50.762;7.178;2024-03-17T05:56:24;10.68;;;6.22;;
85081;SDS011;75424;50.762;7.178;2024-03-17T05:58:50;7.75;;;5.53;;
85081;SDS011;75424;50.762;7.178;2024-03-17T06:01:15;9.43;;;5.93;;
85081;SDS011;75424;50.762;7.178;2024-03-17T06:03:40;9.35;;;5.60;;
85081;SDS011;75424;50.762;7.178;2024-03-17T06:06:06;7.97;;;5.88;;
85081;SDS011;75424;50.762;7.178;2024-03-17T06:08:36;9.40;;;5.57;;
85081;SDS011;75424;50.762;7.178;2024-03-17T06:11:02;7.22;;;5.00;;
85081;SDS011;75424;50.762;7.178;2024-03-17T06:13:29;8.38;;;5.72;;
85081;SDS011;75424;50.762;7.178;2024-03-17T06:15:54;10.90;;;5.43;;
85081;SDS011;75424;50.762;7.178;2024-03-17T06:18:25;7.90;;;4.95;;
85081;SDS011;75424;50.762;7.178;2024-03-17T06:20:50;7.57;;;5.47;;
85081;SDS011;75424;50.762;7.178;2024-03-17T06:23:15;8.25;;;5.20;;
85081;SDS011;75424;50.762;7.178;2024-03-17T06:25:42;7.47;;;5.15;;
85081;SDS011;75424;50.762;7.178;2024-03-17T06:28:12;8.60;;;5.63;;
85081;SDS011;75424;50.762;7.178;2024-03-17T06:30:44;8.35;;;4.65;;
85081;SDS011;75424;50.762;7.178;2024-03-17T06:33:15;9.43;;;5.53;;
85081;SDS011;75424;50.762;7.178;2024-03-17T06:35:43;8.32;;;5.68;;
85081;SDS011;75424;50.762;7.178;2024-03-17T06:38:09;11.38;;;6.35;;
85081;SDS011;75424;50.762;7.178;2024-03-17T06:40:35;12.52;;;6.75;;
85081;SDS011;75424;50.762;7.178;2024-03-17T06:43:01;13.73;;;7.10;;
85081;SDS011;75424;50.762;7.178;2024-03-17T06:45:26;12.50;;;7.55;;
85081;SDS011;75424;50.762;7.178;2024-03-17T06:47:52;11.10;;;7.00;;
85081;SDS011;75424;50.762;7.178;2024-03-17T06:50:17;11.05;;;6.95;;
85081;SDS011;75424;50.762;7.178;2024-03-17T06:52:42;11.85;;;7.13;;
85081;SDS011;75424;50.762;7.178;2024-03-17T06:55:08;11.15;;;7.38;;
85081;SDS011;75424;50.762;7.178;2024-03-17T06:57:33;11.90;;;6.82;;
85081;SDS011;75424;50.762;7.178;2024-03-17T07:00:00;11.65;;;7.72;;
85081;SDS011;75424;50.762;7.178;2024-03-17T07:02:26;13.13;;;8.02;;
85081;SDS011;75424;50.762;7.178;2024-03-17T07:04:51;13.80;;;8.32;;
85081;SDS011;75424;50.762;7.178;2024-03-17T07:07:16;12.60;;;7.13;;
85081;SDS011;75424;50.762;7.178;2024-03-17T07:09:42;11.63;;;7.03;;
85081;SDS011;75424;50.762;7.178;2024-03-17T07:12:08;12.85;;;6.88;;
85081;SDS011;75424;50.762;7.178;2024-03-17T07:14:34;13.80;;;6.97;;
85081;SDS011;75424;50.762;7.178;2024-03-17T07:17:00;10.20;;;7.10;;
85081;SDS011;75424;50.762;7.178;2024-03-17T07:19:25;12.52;;;7.78;;
85081;SDS011;75424;50.762;7.178;2024-03-17T07:21:51;10.50;;;6.78;;
85081;SDS011;75424;50.762;7.178;2024-03-17T07:24:16;10.00;;;6.60;;
85081;SDS011;75424;50.762;7.178;2024-03-17T07:26:41;12.23;;;7.57;;
85081;SDS011;75424;50.762;7.178;2024-03-17T07:29:07;10.52;;;6.40;;
85081;SDS011;75424;50.762;7.178;2024-03-17T07:31:33;12.25;;;6.70;;
85081;SDS011;75424;50.762;7.178;2024-03-17T07:33:59;11.30;;;6.95;;
85081;SDS011;75424;50.762;7.178;2024-03-17T07:36:24;10.80;;;6.13;;
85081;SDS011;75424;50.762;7.178;2024-03-17T07:38:49;11.68;;;6.55;;
85081;SDS011;75424;50.762;7.178;2024-03-17T07:41:15;11.52;;;5.68;;
85081;SDS011;75424;50.762;7.178;2024-03-17T07:43:41;10.15;;;6.22;;
85081;SDS011;75424;50.762;7.178;2024-03-17T07:48:34;9.13;;;5.75;;
85081;SDS011;75424;50.762;7.178;2024-03-17T07:51:02;11.75;;;5.80;;
85081;SDS011;75424;50.762;7.178;2024-03-17T07:53:39;8.45;;;5.20;;
85081;SDS011;75424;50.762;7.178;2024-03-17T07:56:06;9.07;;;5.53;;
85081;SDS011;75424;50.762;7.178;2024-03-17T07:58:39;8.82;;;5.85;;
85081;SDS011;75424;50.762;7.178;2024-03-17T08:01:06;7.03;;;4.72;;
85081;SDS011;75424;50.762;7.178;2024-03-17T08:03:34;7.03;;;4.82;;
85081;SDS011;75424;50.762;7.178;2024-03-17T08:06:02;6.75;;;4.35;;
85081;SDS011;75424;50.762;7.178;2024-03-17T08:08:29;4.80;;;4.07;;
85081;SDS011;75424;50.762;7.178;2024-03-17T08:10:56;6.45;;;5.13;;
85081;SDS011;75424;50.762;7.178;2024-03-17T08:13:22;6.55;;;4.60;;
85081;SDS011;75424;50.762;7.178;2024-03-17T08:15:55;6.43;;;4.53;;
85081;SDS011;75424;50.762;7.178;2024-03-17T08:18:25;5.75;;;3.97;;
85081;SDS011;75424;50.762;7.178;2024-03-17T08:20:52;7.18;;;4.70;;
85081;SDS011;75424;50.762;7.178;2024-03-17T08:23:19;4.40;;;2.42;;
85081;SDS011;75424;50.762;7.178;2024-03-17T08:25:51;2.97;;;2.50;;
85081;SDS011;75424;50.762;7.178;2024-03-17T08:28:24;4.65;;;2.30;;
85081;SDS011;75424;50.762;7.178;2024-03-17T08:30:50;6.93;;;3.63;;
85081;SDS011;75424;50.762;7.178;2024-03-17T08:33:17;3.72;;;3.13;;
85081;SDS011;75424;50.762;7.178;2024-03-17T08:35:42;6.32;;;3.47;;
85081;SDS011;75424;50.762;7.178;2024-03-17T08:38:27;4.65;;;3.63;;
85081;SDS011;75424;50.762;7.178;2024-03-17T08:40:54;5.60;;;3.88;;
85081;SDS011;75424;50.762;7.178;2024-03-17T08:43:20;5.88;;;3.95;;
85081;SDS011;75424;50.762;7.178;2024-03-17T08:45:59;7.43;;;3.92;;
85081;SDS011;75424;50.762;7.178;2024-03-17T08:48:30;6.10;;;3.92;;
85081;SDS011;75424;50.762;7.178;2024-03-17T08:50:57;5.40;;;3.33;;
85081;SDS011;75424;50.762;7.178;2024-03-17T08:53:26;6.35;;;3.65;;
85081;SDS011;75424;50.762;7.178;2024-03-17T08:55:52;4.70;;;2.92;;
85081;SDS011;75424;50.762;7.178;2024-03-17T08:58:18;3.75;;;3.28;;
85081;SDS011;75424;50.762;7.178;2024-03-17T09:00:44;2.38;;;2.10;;
85081;SDS011;75424;50.762;7.178;2024-03-17T09:03:10;2.53;;;1.95;;
85081;SDS011;75424;50.762;7.178;2024-03-17T09:05:37;2.47;;;1.98;;
85081;SDS011;75424;50.762;7.178;2024-03-17T09:08:06;4.65;;;1.95;;
85081;SDS011;75424;50.762;7.178;2024-03-17T09:10:41;6.93;;;1.88;;
85081;SDS011;75424;50.762;7.178;2024-03-17T09:13:07;3.92;;;2.50;;
85081;SDS011;75424;50.762;7.178;2024-03-17T09:15:49;5.70;;;2.75;;
85081;SDS011;75424;50.762;7.178;2024-03-17T09:18:30;4.47;;;2.88;;
85081;SDS011;75424;50.762;7.178;2024-03-17T09:23:22;2.88;;;2.15;;
85081;SDS011;75424;50.762;7.178;2024-03-17T09:25:59;2.85;;;1.80;;
85081;SDS011;75424;50.762;7.178;2024-03-17T09:28:26;3.08;;;2.10;;
85081;SDS011;75424;50.762;7.178;2024-03-17T09:30:53;3.00;;;2.05;;
85081;SDS011;75424;50.762;7.178;2024-03-17T09:33:22;2.67;;;2.22;;
85081;SDS011;75424;50.762;7.178;2024-03-17T09:38:31;3.03;;;2.70;;
85081;SDS011;75424;50.762;7.178;2024-03-17T09:40:57;4.10;;;2.15;;
85081;SDS011;75424;50.762;7.178;2024-03-17T09:43:23;2.40;;;2.15;;
85081;SDS011;75424;50.762;7.178;2024-03-17T09:45:52;2.90;;;2.38;;
85081;SDS011;75424;50.762;7.178;2024-03-17T09:48:27;2.88;;;2.58;;
85081;SDS011;75424;50.762;7.178;2024-03-17T09:50:57;2.85;;;2.00;;
85081;SDS011;75424;50.762;7.178;2024-03-17T09:53:27;4.90;;;2.05;;
85081;SDS011;75424;50.762;7.178;2024-03-17T09:55:58;5.82;;;2.92;;
85081;SDS011;75424;50.762;7.178;2024-03-17T09:58:30;3.65;;;2.13;;
85081;SDS011;75424;50.762;7.178;2024-03-17T10:00:56;5.25;;;2.53;;
85081;SDS011;75424;50.762;7.178;2024-03-17T10:06:16;3.67;;;2.35;;
85081;SDS011;75424;50.762;7.178;2024-03-17T10:11:10;3.08;;;2.15;;
85081;SDS011;75424;50.762;7.178;2024-03-17T10:13:37;3.65;;;2.00;;
85081;SDS011;75424;50.762;7.178;2024-03-17T10:16:02;4.53;;;2.47;;
85081;SDS011;75424;50.762;7.178;2024-03-17T10:18:29;4.60;;;2.50;;
85081;SDS011;75424;50.762;7.178;2024-03-17T10:20:56;4.55;;;2.45;;
85081;SDS011;75424;50.762;7.178;2024-03-17T10:23:22;5.28;;;2.30;;
85081;SDS011;75424;50.762;7.178;2024-03-17T10:25:48;2.40;;;2.13;;
85081;SDS011;75424;50.762;7.178;2024-03-17T10:28:19;4.22;;;2.55;;
85081;SDS011;75424;50.762;7.178;2024-03-17T10:30:57;3.13;;;2.35;;
85081;SDS011;75424;50.762;7.178;2024-03-17T10:33:24;4.47;;;2.67;;
85081;SDS011;75424;50.762;7.178;2024-03-17T10:36:00;3.45;;;2.28;;
85081;SDS011;75424;50.762;7.178;2024-03-17T10:38:26;3.38;;;2.35;;
85081;SDS011;75424;50.762;7.178;2024-03-17T10:40:53;2.67;;;2.25;;
85081;SDS011;75424;50.762;7.178;2024-03-17T10:43:19;2.63;;;2.17;;
85081;SDS011;75424;50.762;7.178;2024-03-17T10:45:49;3.75;;;2.78;;
85081;SDS011;75424;50.762;7.178;2024-03-17T10:48:19;4.00;;;2.13;;
85081;SDS011;75424;50.762;7.178;2024-03-17T10:50:47;4.00;;;2.17;;
85081;SDS011;75424;50.762;7.178;2024-03-17T10:53:14;2.80;;;2.03;;
85081;SDS011;75424;50.762;7.178;2024-03-17T10:55:45;3.67;;;2.40;;
85081;SDS011;75424;50.762;7.178;2024-03-17T11:01:16;3.55;;;2.20;;
85081;SDS011;75424;50.762;7.178;2024-03-17T11:03:43;3.75;;;1.98;;
85081;SDS011;75424;50.762;7.178;2024-03-17T11:06:12;5.53;;;2.47;;
85081;SDS011;75424;50.762;7.178;2024-03-17T11:08:38;4.95;;;3.15;;
85081;SDS011;75424;50.762;7.178;2024-03-17T11:11:07;4.22;;;2.55;;
85081;SDS011;75424;50.762;7.178;2024-03-17T11:13:34;3.80;;;2.67;;
85081;SDS011;75424;50.762;7.178;2024-03-17T11:16:00;4.93;;;2.42;;
85081;SDS011;75424;50.762;7.178;2024-03-17T11:18:31;3.55;;;2.30;;
85081;SDS011;75424;50.762;7.178;2024-03-17T11:23:40;3.28;;;2.25;;
85081;SDS011;75424;50.762;7.178;2024-03-17T11:26:06;3.90;;;2.60;;
85081;SDS011;75424;50.762;7.178;2024-03-17T11:33:57;2.72;;;2.42;;
85081;SDS011;75424;50.762;7.178;2024-03-17T11:38:57;2.60;;;2.40;;
85081;SDS011;75424;50.762;7.178;2024-03-17T11:49:30;3.70;;;2.40;;
85081;SDS011;75424;50.762;7.178;2024-03-17T11:51:59;4.72;;;2.72;;
85081;SDS011;75424;50.762;7.178;2024-03-17T11:54:28;2.70;;;2.50;;
85081;SDS011;75424;50.762;7.178;2024-03-17T11:56:55;3.58;;;2.58;;
85081;SDS011;75424;50.762;7.178;2024-03-17T11:59:25;4.35;;;2.22;;
85081;SDS011;75424;50.762;7.178;2024-03-17T12:01:51;4.03;;;2.65;;
85081;SDS011;75424;50.762;7.178;2024-03-17T12:04:18;2.67;;;2.42;;
85081;SDS011;75424;50.762;7.178;2024-03-17T12:09:21;3.97;;;2.40;;
85081;SDS011;75424;50.762;7.178;2024-03-17T12:14:33;3.08;;;2.60;;
85081;SDS011;75424;50.762;7.178;2024-03-17T12:17:00;3.78;;;2.65;;
85081;SDS011;75424;50.762;7.178;2024-03-17T12:19:30;3.08;;;2.67;;
85081;SDS011;75424;50.762;7.178;2024-03-17T12:21:59;3.90;;;2.80;;
85081;SDS011;75424;50.762;7.178;2024-03-17T12:24:26;3.92;;;2.58;;
85081;SDS011;75424;50.762;7.178;2024-03-17T12:26:53;3.97;;;2.85;;
85081;SDS011;75424;50.762;7.178;2024-03-17T12:31:57;4.30;;;3.22;;
85081;SDS011;75424;50.762;7.178;2024-03-17T12:34:25;5.43;;;2.70;;
85081;SDS011;75424;50.762;7.178;2024-03-17T12:36:52;3.55;;;2.50;;
85081;SDS011;75424;50.762;7.178;2024-03-17T12:39:22;2.83;;;2.50;;
85081;SDS011;75424;50.762;7.178;2024-03-17T12:42:07;5.30;;;3.00;;
85081;SDS011;75424;50.762;7.178;2024-03-17T12:44:34;3.78;;;3.30;;
85081;SDS011;75424;50.762;7.178;2024-03-17T12:47:07;5.30;;;2.50;;
85081;SDS011;75424;50.762;7.178;2024-03-17T12:49:33;3.40;;;2.25;;
85081;SDS011;75424;50.762;7.178;2024-03-17T12:52:01;5.22;;;2.60;;
85081;SDS011;75424;50.762;7.178;2024-03-17T12:54:27;5.57;;;2.55;;
85081;SDS011;75424;50.762;7.178;2024-03-17T12:57:06;2.88;;;2.50;;
85081;SDS011;75424;50.762;7.178;2024-03-17T12:59:50;3.17;;;2.53;;
85081;SDS011;75424;50.762;7.178;2024-03-17T13:02:34;5.60;;;2.53;;
85081;SDS011;75424;50.762;7.178;2024-03-17T13:05:18;3.65;;;2.28;;
85081;SDS011;75424;50.762;7.178;2024-03-17T13:07:48;3.35;;;2.03;;
85081;SDS011;75424;50.762;7.178;2024-03-17T13:10:17;7.18;;;2.50;;
85081;SDS011;75424;50.762;7.178;2024-03-17T13:12:44;5.97;;;2.95;;
85081;SDS011;75424;50.762;7.178;2024-03-17T13:15:16;4.32;;;2.95;;
85081;SDS011;75424;50.762;7.178;2024-03-17T13:17:43;5.90;;;2.97;;
85081;SDS011;75424;50.762;7.178;2024-03-17T13:20:13;6.22;;;2.85;;
85081;SDS011;75424;50.762;7.178;2024-03-17T13:22:40;5.38;;;2.65;;
85081;SDS011;75424;50.762;7.178;2024-03-17T13:25:16;5.40;;;3.03;;
85081;SDS011;75424;50.762;7.178;2024-03-17T13:27:44;5.13;;;2.90;;
85081;SDS011;75424;50.762;7.178;2024-03-17T13:30:13;4.65;;;3.10;;
85081;SDS011;75424;50.762;7.178;2024-03-17T13:32:51;2.63;;;2.25;;
85081;SDS011;75424;50.762;7.178;2024-03-17T13:35:23;3.20;;;2.80;;
85081;SDS011;75424;50.762;7.178;2024-03-17T13:37:50;3.42;;;2.60;;
85081;SDS011;75424;50.762;7.178;2024-03-17T13:40:17;4.05;;;2.60;;
85081;SDS011;75424;50.762;7.178;2024-03-17T13:42:47;3.70;;;2.63;;
85081;SDS011;75424;50.762;7.178;2024-03-17T13:45:14;3.38;;;2.47;;
85081;SDS011;75424;50.762;7.178;2024-03-17T13:47:40;3.25;;;2.90;;
85081;SDS011;75424;50.762;7.178;2024-03-17T13:50:06;4.63;;;3.03;;
85081;SDS011;75424;50.762;7.178;2024-03-17T13:52:42;3.40;;;3.10;;
85081;SDS011;75424;50.762;7.178;2024-03-17T13:55:12;5.10;;;3.15;;
85081;SDS011;75424;50.762;7.178;2024-03-17T13:57:40;4.63;;;2.67;;
85081;SDS011;75424;50.762;7.178;2024-03-17T14:00:05;3.85;;;2.80;;
85081;SDS011;75424;50.762;7.178;2024-03-17T14:02:32;5.38;;;2.63;;
85081;SDS011;75424;50.762;7.178;2024-03-17T14:04:58;3.10;;;2.80;;
85081;SDS011;75424;50.762;7.178;2024-03-17T14:07:23;2.67;;;2.38;;
85081;SDS011;75424;50.762;7.178;2024-03-17T14:09:49;5.25;;;3.00;;
85081;SDS011;75424;50.762;7.178;2024-03-17T14:12:14;5.28;;;2.92;;
85081;SDS011;75424;50.762;7.178;2024-03-17T14:14:40;4.50;;;3.15;;
85081;SDS011;75424;50.762;7.178;2024-03-17T14:17:05;3.38;;;2.67;;
85081;SDS011;75424;50.762;7.178;2024-03-17T14:19:31;4.20;;;2.90;;
85081;SDS011;75424;50.762;7.178;2024-03-17T14:21:57;5.82;;;3.05;;
85081;SDS011;75424;50.762;7.178;2024-03-17T14:24:22;3.63;;;3.03;;
85081;SDS011;75424;50.762;7.178;2024-03-17T14:26:49;3.95;;;2.85;;
85081;SDS011;75424;50.762;7.178;2024-03-17T14:29:14;6.75;;;3.53;;
85081;SDS011;75424;50.762;7.178;2024-03-17T14:31:41;5.03;;;3.15;;
85081;SDS011;75424;50.762;7.178;2024-03-17T14:34:09;2.55;;;2.35;;
85081;SDS011;75424;50.762;7.178;2024-03-17T14:36:35;6.85;;;3.08;;
85081;SDS011;75424;50.762;7.178;2024-03-17T14:39:00;5.38;;;3.33;;
85081;SDS011;75424;50.762;7.178;2024-03-17T14:41:29;3.38;;;2.50;;
85081;SDS011;75424;50.762;7.178;2024-03-17T14:43:58;4.15;;;3.13;;
85081;SDS011;75424;50.762;7.178;2024-03-17T14:46:25;4.45;;;2.80;;
85081;SDS011;75424;50.762;7.178;2024-03-17T14:48:51;4.28;;;2.60;;
85081;SDS011;75424;50.762;7.178;2024-03-17T14:51:17;4.63;;;3.58;;
85081;SDS011;75424;50.762;7.178;2024-03-17T14:53:43;3.53;;;2.88;;
85081;SDS011;75424;50.762;7.178;2024-03-17T14:56:13;7.88;;;3.50;;
85081;SDS011;75424;50.762;7.178;2024-03-17T14:58:43;4.60;;;2.90;;
85081;SDS011;75424;50.762;7.178;2024-03-17T15:01:09;3.55;;;2.85;;
85081;SDS011;75424;50.762;7.178;2024-03-17T15:03:37;4.78;;;3.05;;
85081;SDS011;75424;50.762;7.178;2024-03-17T15:06:08;5.53;;;3.28;;
85081;SDS011;75424;50.762;7.178;2024-03-17T15:08:34;4.00;;;3.10;;
85081;SDS011;75424;50.762;7.178;2024-03-17T15:11:00;5.05;;;3.20;;
85081;SDS011;75424;50.762;7.178;2024-03-17T15:13:25;5.13;;;3.20;;
85081;SDS011;75424;50.762;7.178;2024-03-17T15:15:51;4.53;;;3.45;;
85081;SDS011;75424;50.762;7.178;2024-03-17T15:18:19;3.80;;;2.78;;
85081;SDS011;75424;50.762;7.178;2024-03-17T15:20:50;4.35;;;3.00;;
85081;SDS011;75424;50.762;7.178;2024-03-17T15:23:17;4.22;;;3.00;;
85081;SDS011;75424;50.762;7.178;2024-03-17T15:25:42;6.32;;;3.15;;
85081;SDS011;75424;50.762;7.178;2024-03-17T15:28:08;5.13;;;3.10;;